createdAt,value
2019-05-03T00:01:41.946Z,1.60
2019-05-03T00:04:22.437Z,1.60
2019-05-03T00:07:08.719Z,1.60
2019-05-03T00:09:48.542Z,1.70
2019-05-03T00:12:15.216Z,1.70
2019-05-03T00:17:29.770Z,1.70
2019-05-03T00:20:16.506Z,1.70
2019-05-03T00:23:03.698Z,1.60
2019-05-03T00:25:43.357Z,1.70
2019-05-03T00:28:09.922Z,1.60
2019-05-03T00:30:36.418Z,1.60
2019-05-03T00:33:23.043Z,1.60
2019-05-03T00:36:29.097Z,1.60
2019-05-03T00:42:11.847Z,1.60
2019-05-03T00:44:58.121Z,1.60
2019-05-03T00:47:37.956Z,1.60
2019-05-03T00:50:24.242Z,1.60
2019-05-03T00:53:04.409Z,1.60
2019-05-03T00:55:52.323Z,1.60
2019-05-03T00:58:34.326Z,1.60
2019-05-03T01:01:22.407Z,1.70
2019-05-03T01:04:01.948Z,1.70
2019-05-03T01:06:48.169Z,1.70
2019-05-03T01:09:28.266Z,1.70
2019-05-03T01:12:08.422Z,1.70
2019-05-03T01:17:23.504Z,1.80
2019-05-03T01:20:24.234Z,1.90
2019-05-03T01:22:51.897Z,1.90
2019-05-03T01:25:38.289Z,1.90
2019-05-03T01:28:24.545Z,1.90
2019-05-03T01:35:59.895Z,2.10
2019-05-03T01:38:46.476Z,1.90
2019-05-03T01:41:32.724Z,1.90
2019-05-03T01:44:12.548Z,1.90
2019-05-03T01:50:15.813Z,1.90
2019-05-03T01:53:21.925Z,2.00
2019-05-03T01:56:03.542Z,1.90
2019-05-03T01:58:29.858Z,2.00
2019-05-03T02:06:42.574Z,1.90
2019-05-03T02:09:28.767Z,1.90
2019-05-03T02:12:08.297Z,1.90
2019-05-03T02:14:34.780Z,1.90
2019-05-03T02:17:01.802Z,1.90
2019-05-03T02:19:48.012Z,1.90
2019-05-03T02:22:14.598Z,1.80
2019-05-03T02:25:01.732Z,1.80
2019-05-03T02:30:13.720Z,1.80
2019-05-03T02:32:53.335Z,1.80
2019-05-03T02:35:22.630Z,1.80
2019-05-03T02:38:03.607Z,1.80
2019-05-03T02:40:30.163Z,1.80
2019-05-03T02:46:18.178Z,1.80
2019-05-03T02:49:18.054Z,1.80
2019-05-03T02:52:06.634Z,1.90
2019-05-03T02:54:49.493Z,1.90
2019-05-03T02:57:15.882Z,2.00
2019-05-03T03:00:25.515Z,2.00
2019-05-03T03:03:05.788Z,2.00
2019-05-03T03:05:55.823Z,2.00
2019-05-03T03:08:21.678Z,1.90
2019-05-03T03:11:09.798Z,1.90
2019-05-03T03:17:10.314Z,1.90
2019-05-03T03:19:49.975Z,2.00
2019-05-03T03:22:57.846Z,2.00
2019-05-03T03:25:41.944Z,2.00
2019-05-03T03:28:29.983Z,2.00
2019-05-03T03:31:37.856Z,2.00
2019-05-03T03:34:19.915Z,2.00
2019-05-03T03:37:10.295Z,1.90
2019-05-03T03:39:49.354Z,2.00
2019-05-03T03:45:49.997Z,1.90
2019-05-03T03:48:38.162Z,1.90
2019-05-03T03:51:18.919Z,1.90
2019-05-03T03:53:59.875Z,2.00
2019-05-03T03:59:45.771Z,2.00
2019-05-03T04:02:15.692Z,2.00
2019-05-03T04:04:56.189Z,2.10
2019-05-03T04:07:42.602Z,2.10
2019-05-03T04:12:59.684Z,2.20
2019-05-03T04:16:01.149Z,2.20
2019-05-03T04:18:47.578Z,2.20
2019-05-03T04:21:30.036Z,2.20
2019-05-03T04:24:16.557Z,2.30
2019-05-03T04:27:22.847Z,2.30
2019-05-03T04:30:05.878Z,2.40
2019-05-03T04:32:47.159Z,2.40
2019-05-03T04:35:36.029Z,2.40
2019-05-03T04:38:16.313Z,2.30
2019-05-03T04:41:05.583Z,2.40
2019-05-03T04:43:45.992Z,2.30
2019-05-03T04:46:32.494Z,2.40
2019-05-03T04:49:18.800Z,2.40
2019-05-03T04:51:58.626Z,2.60
2019-05-03T04:54:45.108Z,2.60
2019-05-03T04:57:11.534Z,2.70
2019-05-03T04:59:57.771Z,2.80
2019-05-03T05:02:38.369Z,2.90
2019-05-03T05:05:26.255Z,3.00
2019-05-03T05:08:06.426Z,3.00
2019-05-03T05:10:32.851Z,3.00
2019-05-03T05:12:59.333Z,3.10
2019-05-03T05:15:46.184Z,3.10
2019-05-03T05:21:40.210Z,3.40
2019-05-03T05:24:06.798Z,3.40
2019-05-03T05:27:14.620Z,3.30
2019-05-03T05:33:01.718Z,3.30
2019-05-03T05:36:07.899Z,3.20
2019-05-03T05:38:34.748Z,3.20
2019-05-03T05:41:21.262Z,3.10
2019-05-03T05:44:07.495Z,3.10
2019-05-03T05:46:56.114Z,2.90
2019-05-03T05:52:44.842Z,3.10
2019-05-03T05:55:28.855Z,3.00
2019-05-03T06:00:48.503Z,3.20
2019-05-03T06:03:14.997Z,3.30
2019-05-03T06:05:41.416Z,3.30
2019-05-03T06:11:28.144Z,3.60
2019-05-03T06:17:15.883Z,3.70
2019-05-03T06:19:55.420Z,3.70
2019-05-03T06:25:30.472Z,3.80
2019-05-03T06:28:20.943Z,3.80
2019-05-03T06:31:06.884Z,3.90
2019-05-03T06:33:55.240Z,4.10
2019-05-03T06:36:36.072Z,4.30
2019-05-03T06:39:22.310Z,4.70
2019-05-03T06:42:05.058Z,5.10
2019-05-03T06:44:51.145Z,5.70
2019-05-03T06:47:17.762Z,6.20
2019-05-03T06:50:05.475Z,6.10
2019-05-03T06:52:46.030Z,6.60
2019-05-03T06:55:26.227Z,6.70
2019-05-03T06:58:12.595Z,6.50
2019-05-03T07:00:56.710Z,6.30
2019-05-03T07:03:44.784Z,6.10
2019-05-03T07:06:39.477Z,7.00
2019-05-03T07:09:19.356Z,7.20
2019-05-03T07:11:59.693Z,6.70
2019-05-03T07:17:45.719Z,6.90
2019-05-03T07:20:12.190Z,6.40
2019-05-03T07:22:38.561Z,6.20
2019-05-03T07:25:05.019Z,6.00
2019-05-03T07:27:51.398Z,5.80
2019-05-03T07:30:34.595Z,5.80
2019-05-03T07:33:39.894Z,6.50
2019-05-03T07:36:20.003Z,7.00
2019-05-03T07:39:06.646Z,6.80
2019-05-03T07:41:46.452Z,6.30
2019-05-03T07:44:34.573Z,6.10
2019-05-03T07:47:01.082Z,5.90
2019-05-03T07:49:47.294Z,5.90
2019-05-03T07:52:27.060Z,5.80
2019-05-03T07:54:55.176Z,6.00
2019-05-03T07:59:59.552Z,8.40
2019-05-03T08:02:27.526Z,8.20
2019-05-03T08:05:15.512Z,8.00
2019-05-03T08:07:44.460Z,7.80
2019-05-03T08:10:30.694Z,7.50
2019-05-03T08:12:57.049Z,7.10
2019-05-03T08:15:45.149Z,7.10
2019-05-03T08:18:11.634Z,7.60
2019-05-03T08:20:38.113Z,7.70
2019-05-03T08:23:30.031Z,7.50
2019-05-03T08:26:05.949Z,7.00
2019-05-03T08:28:45.590Z,6.70
2019-05-03T08:31:51.748Z,7.20
2019-05-03T08:40:16.878Z,7.30
2019-05-03T08:42:56.978Z,7.00
2019-05-03T08:45:44.751Z,7.00
2019-05-03T08:50:55.408Z,9.10
2019-05-03T08:53:22.024Z,10.10
2019-05-03T08:56:01.411Z,10.60
2019-05-03T08:59:07.507Z,9.80
2019-05-03T09:01:47.468Z,9.00
2019-05-03T09:04:15.403Z,9.00
2019-05-03T09:10:06.049Z,9.90
2019-05-03T09:13:06.309Z,10.30
2019-05-03T09:15:55.266Z,9.40
2019-05-03T09:18:35.171Z,9.00
2019-05-03T09:21:21.319Z,9.10
2019-05-03T09:24:01.080Z,8.70
2019-05-03T09:26:47.415Z,8.70
2019-05-03T09:29:39.995Z,9.90
2019-05-03T09:32:15.332Z,9.90
2019-05-03T09:34:55.496Z,9.20
2019-05-03T09:37:41.983Z,8.50
2019-05-03T09:40:21.943Z,8.20
2019-05-03T09:43:08.193Z,8.00
2019-05-03T09:45:47.969Z,9.90
2019-05-03T09:48:34.799Z,11.80
2019-05-03T09:51:21.208Z,12.90
2019-05-03T09:54:07.471Z,12.00
2019-05-03T09:56:56.061Z,10.60
2019-05-03T10:02:31.798Z,9.00
2019-05-03T10:05:18.245Z,8.40
2019-05-03T10:07:58.126Z,7.70
2019-05-03T10:11:05.548Z,7.70
2019-05-03T10:13:48.034Z,7.60
2019-05-03T10:19:40.440Z,9.10
2019-05-03T10:22:27.387Z,8.80
2019-05-03T10:25:07.958Z,8.60
2019-05-03T10:27:55.056Z,8.30
2019-05-03T10:30:36.065Z,7.60
2019-05-03T10:33:42.220Z,7.50
2019-05-03T10:36:24.768Z,7.90
2019-05-03T10:39:10.618Z,7.80
2019-05-03T10:41:37.119Z,7.50
2019-05-03T10:44:24.569Z,7.50
2019-05-03T10:47:11.433Z,7.40
2019-05-03T10:49:51.274Z,7.20
2019-05-03T10:55:22.047Z,7.00
2019-05-03T10:58:06.999Z,7.20
2019-05-03T11:00:56.557Z,7.30
2019-05-03T11:03:21.835Z,7.50
2019-05-03T11:06:08.073Z,7.30
2019-05-03T11:08:54.630Z,7.60
2019-05-03T11:11:35.164Z,8.00
2019-05-03T11:14:21.614Z,8.40
2019-05-03T11:17:01.433Z,8.70
2019-05-03T11:19:47.776Z,9.00
2019-05-03T11:22:14.589Z,10.20
2019-05-03T11:24:42.317Z,10.40
2019-05-03T11:29:49.796Z,10.20
2019-05-03T11:35:37.757Z,9.50
2019-05-03T11:38:19.755Z,8.50
2019-05-03T11:41:32.078Z,6.90
2019-05-03T11:44:27.240Z,6.80
2019-05-03T11:47:14.992Z,6.80
2019-05-03T11:49:42.786Z,6.80
2019-05-03T11:52:29.024Z,7.40
2019-05-03T11:55:11.343Z,7.60
2019-05-03T11:57:37.073Z,8.00
2019-05-03T12:03:19.334Z,7.30
2019-05-03T12:08:49.609Z,7.00
2019-05-03T12:14:24.495Z,7.80
2019-05-03T12:20:18.211Z,9.00
2019-05-03T12:23:06.098Z,9.10
2019-05-03T12:25:46.429Z,10.30
2019-05-03T12:28:35.091Z,10.60
2019-05-03T12:31:28.219Z,10.80
2019-05-03T12:33:43.107Z,11.70
2019-05-03T12:36:43.495Z,11.20
2019-05-03T12:39:24.073Z,11.40
2019-05-03T12:42:01.278Z,11.80
2019-05-03T12:44:40.737Z,11.10
2019-05-03T12:47:26.957Z,10.60
2019-05-03T12:49:55.743Z,11.10
2019-05-03T12:52:49.858Z,12.30
2019-05-03T12:55:10.038Z,12.70
2019-05-03T12:57:56.295Z,12.20
2019-05-03T13:01:04.541Z,11.50
2019-05-03T13:06:19.966Z,9.50
2019-05-03T13:09:06.940Z,8.50
2019-05-03T13:14:34.609Z,7.30
2019-05-03T13:17:41.886Z,7.20
2019-05-03T13:20:45.181Z,7.10
2019-05-03T13:23:31.278Z,7.10
2019-05-03T13:25:57.907Z,7.00
2019-05-03T13:28:25.445Z,7.10
2019-05-03T13:30:54.596Z,7.50
2019-05-03T13:35:59.622Z,6.90
2019-05-03T13:38:26.465Z,7.10
2019-05-03T13:41:12.691Z,7.80
2019-05-03T13:43:54.764Z,8.60
2019-05-03T13:46:21.063Z,8.90
2019-05-03T13:49:08.748Z,9.30
2019-05-03T13:51:49.366Z,9.40
2019-05-03T13:54:35.632Z,9.70
2019-05-03T13:57:04.807Z,9.80
2019-05-03T14:00:26.210Z,9.10
2019-05-03T14:02:52.714Z,8.70
2019-05-03T14:05:38.935Z,8.70
2019-05-03T14:08:18.971Z,8.90
2019-05-03T14:11:05.273Z,9.50
2019-05-03T14:13:44.818Z,9.40
2019-05-03T14:16:11.215Z,9.30
2019-05-03T14:21:57.842Z,8.90
2019-05-03T14:24:24.645Z,8.30
2019-05-03T14:27:06.399Z,8.10
2019-05-03T14:29:34.649Z,8.10
2019-05-03T14:32:25.330Z,7.90
2019-05-03T14:37:55.262Z,7.90
2019-05-03T14:40:41.571Z,7.80
2019-05-03T14:43:08.039Z,7.90
2019-05-03T14:45:55.010Z,7.70
2019-05-03T14:48:42.208Z,7.80
2019-05-03T14:51:25.389Z,7.80
2019-05-03T14:54:11.930Z,7.40
2019-05-03T14:56:58.193Z,7.70
2019-05-03T14:59:45.312Z,7.70
2019-05-03T15:02:39.507Z,7.80
2019-05-03T15:05:14.967Z,7.70
2019-05-03T15:07:56.213Z,7.30
2019-05-03T15:10:42.463Z,7.20
2019-05-03T15:13:22.227Z,7.70
2019-05-03T15:16:08.486Z,8.00
2019-05-03T15:18:35.033Z,8.20
2019-05-03T15:21:21.490Z,8.40
2019-05-03T15:23:48.054Z,8.20
2019-05-03T15:26:14.502Z,8.40
2019-05-03T15:29:00.811Z,8.70
2019-05-03T15:31:27.197Z,9.20
2019-05-03T15:34:15.256Z,9.40
2019-05-03T15:36:55.003Z,9.30
2019-05-03T15:39:41.165Z,9.40
2019-05-03T15:42:22.624Z,9.40
2019-05-03T15:48:24.559Z,9.10
2019-05-03T15:51:10.755Z,8.80
2019-05-03T15:53:37.242Z,8.90
2019-05-03T15:56:25.098Z,8.60
2019-05-03T15:59:05.164Z,8.50
2019-05-03T16:01:31.718Z,8.30
2019-05-03T16:04:17.842Z,8.10
2019-05-03T16:06:57.461Z,8.00
2019-05-03T16:09:24.569Z,7.40
2019-05-03T16:12:06.232Z,7.30
2019-05-03T16:14:52.455Z,7.00
2019-05-03T16:17:18.715Z,6.70
2019-05-03T16:20:05.161Z,6.70
2019-05-03T16:22:51.456Z,6.80
2019-05-03T16:25:31.566Z,6.50
2019-05-03T16:31:26.325Z,6.30
2019-05-03T16:34:12.671Z,6.40
2019-05-03T16:36:39.113Z,6.10
2019-05-03T16:39:19.222Z,6.20
2019-05-03T16:42:27.110Z,6.20
2019-05-03T16:44:54.982Z,6.20
2019-05-03T16:47:41.625Z,6.10
2019-05-03T16:53:02.596Z,6.10
2019-05-03T16:55:31.230Z,6.20
2019-05-03T16:58:17.618Z,6.40
2019-05-03T17:01:03.842Z,6.40
2019-05-03T17:03:45.703Z,6.50
2019-05-03T17:06:32.114Z,6.30
2019-05-03T17:09:18.439Z,6.30
2019-05-03T17:14:58.535Z,6.00
2019-05-03T17:18:00.209Z,6.00
2019-05-03T17:20:46.537Z,5.90
2019-05-03T17:23:26.851Z,5.60
2019-05-03T17:26:14.952Z,5.60
2019-05-03T17:28:55.436Z,5.60
2019-05-03T17:31:41.576Z,5.40
2019-05-03T17:34:20.907Z,5.40
2019-05-03T17:37:07.148Z,5.40
2019-05-03T17:39:48.922Z,5.20
2019-05-03T17:42:54.990Z,5.20
2019-05-03T17:45:38.070Z,5.20
2019-05-03T17:48:24.406Z,5.10
2019-05-03T17:51:06.476Z,5.10
2019-05-03T17:54:12.437Z,5.10
2019-05-03T17:56:59.225Z,5.00
2019-05-03T18:00:05.344Z,4.90
2019-05-03T18:02:51.608Z,4.90
2019-05-03T18:08:52.462Z,4.90
2019-05-03T18:12:00.395Z,5.00
2019-05-03T18:14:40.179Z,4.90
2019-05-03T18:17:26.342Z,4.90
2019-05-03T18:20:06.252Z,4.90
2019-05-03T18:22:35.364Z,4.90
2019-05-03T18:25:21.628Z,4.90
2019-05-03T18:30:48.555Z,4.90
2019-05-03T18:33:34.916Z,4.90
2019-05-03T18:36:18.002Z,5.00
2019-05-03T18:38:44.693Z,4.90
2019-05-03T18:44:06.070Z,4.90
2019-05-03T18:49:46.345Z,4.70
2019-05-03T18:55:28.389Z,4.70
2019-05-03T18:58:14.903Z,4.70
2019-05-03T19:00:54.923Z,4.70
2019-05-03T19:03:42.093Z,4.70
2019-05-03T19:06:21.923Z,4.70
2019-05-03T19:15:10.222Z,4.60
2019-05-03T19:20:59.313Z,4.60
2019-05-03T19:23:45.731Z,4.60
2019-05-03T19:26:25.475Z,4.50
2019-05-03T19:28:51.997Z,4.50
2019-05-03T19:31:38.343Z,4.50
2019-05-03T19:34:06.060Z,4.50
2019-05-03T19:36:54.612Z,4.40
2019-05-03T19:39:56.643Z,4.50
2019-05-03T19:42:44.623Z,4.40
2019-05-03T19:45:25.037Z,4.30
2019-05-03T19:48:11.179Z,4.30
2019-05-03T19:50:50.908Z,4.20
2019-05-03T19:53:56.886Z,4.10
2019-05-03T19:56:25.359Z,4.10
2019-05-03T20:02:01.152Z,4.00
2019-05-03T20:05:01.348Z,4.00
2019-05-03T20:07:47.582Z,4.00
2019-05-03T20:10:14.936Z,3.90
2019-05-03T20:12:56.314Z,3.90
2019-05-03T20:15:42.539Z,3.90
2019-05-03T20:18:22.160Z,3.90
2019-05-03T20:21:08.336Z,4.00
2019-05-03T20:23:48.058Z,3.90
2019-05-03T20:26:34.788Z,3.90
2019-05-03T20:29:14.826Z,3.80
2019-05-03T20:32:01.101Z,3.70
2019-05-03T20:34:27.462Z,3.70
2019-05-03T20:37:14.655Z,3.70
2019-05-03T20:39:41.698Z,3.60
2019-05-03T20:42:08.250Z,3.70
2019-05-03T20:47:59.628Z,3.70
2019-05-03T20:50:26.085Z,3.70
2019-05-03T20:53:12.241Z,3.70
2019-05-03T20:55:38.746Z,3.70
2019-05-03T20:58:25.242Z,3.70
2019-05-03T21:00:51.766Z,3.70
2019-05-03T21:03:38.149Z,3.70
2019-05-03T21:06:17.586Z,3.60
2019-05-03T21:09:04.753Z,3.60
2019-05-03T21:11:44.941Z,3.60
2019-05-03T21:14:31.424Z,3.70
2019-05-03T21:17:15.882Z,3.60
2019-05-03T21:20:25.297Z,3.50
2019-05-03T21:26:16.515Z,3.50
2019-05-03T21:28:55.996Z,3.40
2019-05-03T21:31:42.202Z,3.40
2019-05-03T21:34:22.063Z,3.40
2019-05-03T21:36:48.392Z,3.40
2019-05-03T21:39:34.880Z,3.40
2019-05-03T21:42:01.374Z,3.40
2019-05-03T21:47:36.072Z,3.40
2019-05-03T21:50:24.859Z,3.40
2019-05-03T21:53:05.861Z,3.40
2019-05-03T21:55:52.298Z,3.40
2019-05-03T21:58:18.916Z,3.50
2019-05-03T22:03:59.368Z,3.60
2019-05-03T22:06:45.750Z,3.70
2019-05-03T22:09:25.730Z,3.60
2019-05-03T22:11:52.313Z,3.70
2019-05-03T22:14:41.045Z,3.70
2019-05-03T22:17:25.426Z,3.60
2019-05-03T22:20:31.474Z,3.70
2019-05-03T22:29:14.411Z,3.80
2019-05-03T22:32:01.032Z,3.80
2019-05-03T22:34:40.602Z,3.90
2019-05-03T22:37:26.978Z,3.90
2019-05-03T22:40:06.626Z,3.90
2019-05-03T22:42:52.971Z,3.80
2019-05-03T22:45:34.876Z,3.90
2019-05-03T22:48:21.334Z,3.90
2019-05-03T22:51:00.843Z,3.80
2019-05-03T22:53:47.217Z,3.80
2019-05-03T22:56:35.637Z,3.70
2019-05-03T22:59:15.362Z,3.80
2019-05-03T23:02:01.585Z,3.70
2019-05-03T23:04:41.527Z,3.60
2019-05-03T23:07:27.822Z,3.60
2019-05-03T23:10:07.701Z,3.50
2019-05-03T23:13:15.330Z,3.50
2019-05-03T23:15:41.662Z,3.50
2019-05-03T23:18:27.897Z,3.40
2019-05-03T23:26:56.276Z,3.30
2019-05-03T23:29:36.403Z,3.20
2019-05-03T23:32:24.448Z,3.20
2019-05-03T23:35:05.119Z,3.10
2019-05-03T23:37:51.376Z,3.20
2019-05-03T23:40:17.858Z,3.20
2019-05-03T23:42:44.264Z,3.20
2019-05-03T23:45:30.484Z,3.20
2019-05-03T23:48:16.862Z,3.20
2019-05-03T23:50:44.641Z,3.10
2019-05-03T23:53:31.418Z,3.10
2019-05-03T23:56:17.835Z,3.10
2019-05-03T23:59:05.531Z,3.10
